createdAt,value
2023-04-04T00:00:39.648Z,0.50
2023-04-04T00:03:06.878Z,0.50
2023-04-04T00:05:36.150Z,0.52
2023-04-04T00:08:04.868Z,0.50
2023-04-04T00:10:31.760Z,0.60
2023-04-04T00:12:59.045Z,0.50
2023-04-04T00:15:26.609Z,0.50
2023-04-04T00:17:53.560Z,0.60
2023-04-04T00:20:20.414Z,0.60
2023-04-04T00:22:47.235Z,0.60
2023-04-04T00:25:15.695Z,0.50
2023-04-04T00:27:42.520Z,0.60
2023-04-04T00:30:13.599Z,0.60
2023-04-04T00:32:41.141Z,0.50
2023-04-04T00:35:08.617Z,0.50
2023-04-04T00:37:38.879Z,0.60
2023-04-04T00:40:08.561Z,0.50
2023-04-04T00:42:37.654Z,0.60
2023-04-04T00:45:08.412Z,0.60
2023-04-04T00:47:36.394Z,0.60
2023-04-04T00:50:03.673Z,0.60
2023-04-04T00:52:31.341Z,0.50
2023-04-04T00:54:58.513Z,0.60
2023-04-04T00:57:27.464Z,0.50
2023-04-04T00:59:57.549Z,0.50
2023-04-04T01:02:25.496Z,0.60
2023-04-04T01:04:52.628Z,0.60
2023-04-04T01:07:19.678Z,0.60
2023-04-04T01:10:18.589Z,0.60
2023-04-04T01:13:02.103Z,0.60
2023-04-04T01:15:34.543Z,0.60
2023-04-04T01:18:03.961Z,0.70
2023-04-04T01:20:33.881Z,0.60
2023-04-04T01:23:02.846Z,0.60
2023-04-04T01:25:32.221Z,0.60
2023-04-04T01:28:00.515Z,0.50
2023-04-04T01:30:31.906Z,0.50
2023-04-04T01:33:08.233Z,0.60
2023-04-04T01:36:09.070Z,0.70
2023-04-04T01:38:52.631Z,0.50
2023-04-04T01:42:07.538Z,0.60
2023-04-04T01:44:34.778Z,0.63
2023-04-04T01:47:03.279Z,0.60
2023-04-04T01:49:30.280Z,0.60
2023-04-04T01:51:57.531Z,0.60
2023-04-04T01:54:24.668Z,0.60
2023-04-04T01:56:53.158Z,0.60
2023-04-04T01:59:20.195Z,0.70
2023-04-04T02:01:47.136Z,0.60
2023-04-04T02:04:15.279Z,0.57
2023-04-04T02:06:42.177Z,0.70
2023-04-04T02:09:09.631Z,0.70
2023-04-04T02:11:37.665Z,0.60
2023-04-04T02:14:06.213Z,0.70
2023-04-04T02:16:33.828Z,0.60
2023-04-04T02:19:00.797Z,0.60
2023-04-04T02:21:28.289Z,0.70
2023-04-04T02:23:55.538Z,0.60
2023-04-04T02:26:22.866Z,0.70
2023-04-04T02:28:49.847Z,0.70
2023-04-04T02:31:21.809Z,0.73
2023-04-04T02:33:48.671Z,0.70
2023-04-04T02:36:15.716Z,0.70
2023-04-04T02:38:42.592Z,0.60
2023-04-04T02:41:11.881Z,0.60
2023-04-04T02:43:38.783Z,0.60
2023-04-04T02:46:18.416Z,0.60
2023-04-04T02:48:52.510Z,0.85
2023-04-04T02:51:20.405Z,0.60
2023-04-04T02:53:59.881Z,0.70
2023-04-04T02:56:26.848Z,0.60
2023-04-04T02:58:54.415Z,0.70
2023-04-04T03:01:21.556Z,0.70
2023-04-04T03:03:50.317Z,0.60
2023-04-04T03:06:18.404Z,0.60
2023-04-04T03:08:45.254Z,0.60
2023-04-04T03:11:12.890Z,0.70
2023-04-04T03:13:39.899Z,0.75
2023-04-04T03:16:11.689Z,0.70
2023-04-04T03:18:38.888Z,0.60
2023-04-04T03:21:07.632Z,0.70
2023-04-04T03:23:34.483Z,0.70
2023-04-04T03:26:02.159Z,0.70
2023-04-04T03:28:29.299Z,0.70
2023-04-04T03:30:56.678Z,0.70
2023-04-04T03:33:23.583Z,0.70
2023-04-04T03:35:50.599Z,0.70
2023-04-04T03:38:19.685Z,0.70
2023-04-04T03:40:46.876Z,0.70
2023-04-04T03:43:14.292Z,0.70
2023-04-04T03:45:41.184Z,0.60
2023-04-04T03:48:09.556Z,0.80
2023-04-04T03:50:37.352Z,0.70
2023-04-04T03:53:04.254Z,0.70
2023-04-04T03:55:33.958Z,0.70
2023-04-04T03:58:00.816Z,0.60
2023-04-04T04:00:27.789Z,0.80
2023-04-04T04:02:54.768Z,0.75
2023-04-04T04:05:21.757Z,0.70
2023-04-04T04:07:48.576Z,0.70
2023-04-04T04:10:15.925Z,0.65
2023-04-04T04:12:44.532Z,0.70
2023-04-04T04:15:11.644Z,0.70
2023-04-04T04:17:43.078Z,0.70
2023-04-04T04:20:10.736Z,0.70
2023-04-04T04:22:38.333Z,0.70
2023-04-04T04:25:05.870Z,0.70
2023-04-04T04:27:32.963Z,0.70
2023-04-04T04:30:01.259Z,0.70
2023-04-04T04:32:28.713Z,0.63
2023-04-04T04:34:55.680Z,0.70
2023-04-04T04:37:25.641Z,0.70
2023-04-04T04:39:53.021Z,0.60
2023-04-04T04:42:21.968Z,0.70
2023-04-04T04:44:48.921Z,0.80
2023-04-04T04:47:17.632Z,0.80
2023-04-04T04:49:48.006Z,0.70
2023-04-04T04:52:15.084Z,0.70
2023-04-04T04:54:43.695Z,0.73
2023-04-04T04:57:11.343Z,0.80
2023-04-04T04:59:38.114Z,0.70
2023-04-04T05:02:05.475Z,0.80
2023-04-04T05:04:33.695Z,0.80
2023-04-04T05:07:00.659Z,0.80
2023-04-04T05:09:27.688Z,0.80
2023-04-04T05:11:54.610Z,0.70
2023-04-04T05:14:21.556Z,0.70
2023-04-04T05:16:49.177Z,0.80
2023-04-04T05:19:16.403Z,0.70
2023-04-04T05:21:44.780Z,0.80
2023-04-04T05:24:11.839Z,0.82
2023-04-04T05:26:38.743Z,0.77
2023-04-04T05:29:05.878Z,0.70
2023-04-04T05:31:33.217Z,0.90
2023-04-04T05:34:00.975Z,0.80
2023-04-04T05:36:29.314Z,0.80
2023-04-04T05:38:57.770Z,0.80
2023-04-04T05:41:24.588Z,0.80
2023-04-04T05:43:51.426Z,0.70
2023-04-04T05:46:21.135Z,0.70
2023-04-04T05:48:48.819Z,0.80
2023-04-04T05:51:15.701Z,0.80
2023-04-04T05:53:44.151Z,0.80
2023-04-04T05:56:12.729Z,0.80
2023-04-04T05:58:39.719Z,0.77
2023-04-04T06:01:08.456Z,0.80
2023-04-04T06:03:35.668Z,0.70
2023-04-04T06:06:06.331Z,0.77
2023-04-04T06:08:40.152Z,0.70
2023-04-04T06:11:18.712Z,0.68
2023-04-04T06:13:45.824Z,0.80
2023-04-04T06:16:12.938Z,0.75
2023-04-04T06:18:42.613Z,0.70
2023-04-04T06:21:10.058Z,0.70
2023-04-04T06:23:39.134Z,0.70
2023-04-04T06:26:06.722Z,0.70
2023-04-04T06:28:34.874Z,0.70
2023-04-04T06:31:02.029Z,0.70
2023-04-04T06:33:28.869Z,0.70
2023-04-04T06:35:55.811Z,0.70
2023-04-04T06:38:22.747Z,0.60
2023-04-04T06:40:49.689Z,0.60
2023-04-04T06:43:19.349Z,0.60
2023-04-04T06:45:47.707Z,0.60
2023-04-04T06:48:14.789Z,0.70
2023-04-04T06:50:41.979Z,0.70
2023-04-04T06:53:09.837Z,0.60
2023-04-04T06:55:37.110Z,0.60
2023-04-04T06:58:04.224Z,0.60
2023-04-04T07:00:31.590Z,0.60
2023-04-04T07:03:00.801Z,0.50
2023-04-04T07:05:28.434Z,0.50
2023-04-04T07:07:56.896Z,0.60
2023-04-04T07:10:25.478Z,0.50
2023-04-04T07:12:53.051Z,0.50
2023-04-04T07:15:19.963Z,0.50
2023-04-04T07:17:47.002Z,0.40
2023-04-04T07:20:18.923Z,0.40
2023-04-04T07:22:46.274Z,0.40
2023-04-04T07:25:13.463Z,0.40
2023-04-04T07:27:43.331Z,0.40
2023-04-04T07:30:11.730Z,0.40
2023-04-04T07:32:38.917Z,0.40
2023-04-04T07:35:08.366Z,0.40
2023-04-04T07:37:38.431Z,0.30
2023-04-04T07:40:08.779Z,0.30
2023-04-04T07:42:36.097Z,0.50
2023-04-04T07:45:03.139Z,0.30
2023-04-04T07:47:30.154Z,0.30
2023-04-04T07:49:57.055Z,0.30
2023-04-04T07:52:26.355Z,0.30
2023-04-04T07:54:54.766Z,0.35
2023-04-04T07:57:24.922Z,0.65
2023-04-04T07:59:51.834Z,0.20
2023-04-04T08:02:19.124Z,0.30
2023-04-04T08:04:46.227Z,0.50
2023-04-04T08:07:13.319Z,0.20
2023-04-04T08:09:40.177Z,0.20
2023-04-04T08:12:08.914Z,0.20
2023-04-04T08:14:36.606Z,0.30
2023-04-04T08:17:08.487Z,0.20
2023-04-04T08:19:35.480Z,0.20
2023-04-04T08:22:03.058Z,0.20
2023-04-04T08:24:29.899Z,0.20
2023-04-04T08:27:05.036Z,0.20
2023-04-04T08:29:34.371Z,0.20
2023-04-04T08:32:01.395Z,0.10
2023-04-04T08:34:28.763Z,0.13
2023-04-04T08:36:57.504Z,0.10
2023-04-04T08:39:24.374Z,0.10
2023-04-04T08:42:01.950Z,0.10
2023-04-04T08:44:29.999Z,0.68
2023-04-04T08:46:59.667Z,0.20
2023-04-04T08:49:28.578Z,0.20
2023-04-04T08:51:58.135Z,0.10
2023-04-04T08:54:26.444Z,0.10
2023-04-04T08:56:53.490Z,0.10
2023-04-04T08:59:23.414Z,0.10
2023-04-04T09:01:59.613Z,0.10
2023-04-04T09:04:30.484Z,0.10
2023-04-04T09:06:59.148Z,0.20
2023-04-04T09:09:37.246Z,1.63
2023-04-04T09:12:05.643Z,0.10
2023-04-04T09:14:38.793Z,0.10
2023-04-04T09:17:10.957Z,0.10
2023-04-04T09:19:39.390Z,0.10
2023-04-04T09:22:08.320Z,0.10
2023-04-04T09:24:39.669Z,0.10
2023-04-04T09:27:09.552Z,0.10
2023-04-04T09:29:38.406Z,0.10
2023-04-04T09:32:07.629Z,0.10
2023-04-04T09:34:35.493Z,0.10
2023-04-04T09:37:06.652Z,0.10
2023-04-04T09:39:34.217Z,0.00
2023-04-04T09:42:01.910Z,0.15
2023-04-04T09:44:33.284Z,0.10
2023-04-04T09:49:58.555Z,0.10
2023-04-04T09:52:27.466Z,0.10
2023-04-04T09:54:58.252Z,0.03
2023-04-04T09:57:28.013Z,0.30
2023-04-04T09:59:58.735Z,0.00
2023-04-04T10:02:27.058Z,0.00
2023-04-04T10:05:05.665Z,0.00
2023-04-04T10:07:39.844Z,0.00
2023-04-04T10:10:11.493Z,0.00
2023-04-04T10:12:39.129Z,0.00
2023-04-04T10:15:08.503Z,0.00
2023-04-04T10:17:38.817Z,0.00
2023-04-04T10:20:07.702Z,0.00
2023-04-04T10:22:36.855Z,0.00
2023-04-04T10:25:04.185Z,0.00
2023-04-04T10:27:31.829Z,0.00
2023-04-04T10:30:00.494Z,0.00
2023-04-04T10:33:05.476Z,0.00
2023-04-04T10:35:35.325Z,0.10
2023-04-04T10:38:06.943Z,0.00
2023-04-04T10:40:39.312Z,0.00
2023-04-04T10:43:07.345Z,0.20
2023-04-04T10:45:38.966Z,0.00
2023-04-04T10:48:10.011Z,0.00
2023-04-04T10:50:39.535Z,0.00
2023-04-04T10:53:08.380Z,0.00
2023-04-04T10:55:37.366Z,0.00
2023-04-04T10:58:06.122Z,0.00
2023-04-04T11:00:35.388Z,0.00
2023-04-04T11:03:03.007Z,0.00
2023-04-04T11:05:32.784Z,0.00
2023-04-04T11:08:07.627Z,0.00
2023-04-04T11:10:38.374Z,0.00
2023-04-04T11:13:14.064Z,0.70
2023-04-04T11:15:58.289Z,0.00
2023-04-04T11:18:46.598Z,0.00
2023-04-04T11:21:17.124Z,0.00
2023-04-04T11:24:15.402Z,0.00
2023-04-04T11:26:45.953Z,0.00
2023-04-04T11:29:23.082Z,0.00
2023-04-04T11:31:50.842Z,0.00
2023-04-04T11:34:31.575Z,0.00
2023-04-04T11:37:01.775Z,0.00
2023-04-04T11:39:30.983Z,0.00
2023-04-04T11:42:04.838Z,0.00
2023-04-04T11:44:33.343Z,0.00
2023-04-04T11:47:04.209Z,0.00
2023-04-04T11:49:36.805Z,0.22
2023-04-04T11:52:08.988Z,0.00
2023-04-04T11:54:36.127Z,0.00
2023-04-04T11:57:06.560Z,0.00
2023-04-04T11:59:34.811Z,0.10
2023-04-04T12:02:03.077Z,0.00
2023-04-04T12:04:30.484Z,0.20
2023-04-04T12:06:57.779Z,0.00
2023-04-04T12:09:27.318Z,0.00
2023-04-04T12:11:55.934Z,0.00
2023-04-04T12:14:25.231Z,0.00
2023-04-04T12:16:54.067Z,0.00
2023-04-04T12:19:23.634Z,0.00
2023-04-04T12:21:52.395Z,0.63
2023-04-04T12:24:19.847Z,0.00
2023-04-04T12:26:48.818Z,0.00
2023-04-04T12:29:17.206Z,0.00
2023-04-04T12:31:47.546Z,0.00
2023-04-04T12:34:18.978Z,0.00
2023-04-04T12:36:47.642Z,0.00
2023-04-04T12:39:16.448Z,0.00
2023-04-04T12:41:52.629Z,0.00
2023-04-04T12:44:31.169Z,0.00
2023-04-04T12:47:01.432Z,0.00
2023-04-04T12:49:30.421Z,0.90
2023-04-04T12:52:09.397Z,0.00
2023-04-04T12:54:39.019Z,0.00
2023-04-04T12:57:07.490Z,0.00
2023-04-04T12:59:37.563Z,0.00
2023-04-04T13:02:11.077Z,0.00
2023-04-04T13:07:20.763Z,0.00
2023-04-04T13:09:52.950Z,0.00
2023-04-04T13:12:19.917Z,0.00
2023-04-04T13:15:11.735Z,0.00
2023-04-04T13:17:47.629Z,0.00
2023-04-04T13:20:19.582Z,0.00
2023-04-04T13:22:46.990Z,0.00
2023-04-04T13:25:14.002Z,0.00
2023-04-04T13:27:41.905Z,0.00
2023-04-04T13:30:10.365Z,0.00
2023-04-04T13:32:38.446Z,0.10
2023-04-04T13:35:08.024Z,0.15
2023-04-04T13:37:35.078Z,0.00
2023-04-04T13:40:02.004Z,0.00
2023-04-04T13:42:31.543Z,0.00
2023-04-04T13:44:58.539Z,0.00
2023-04-04T13:47:27.606Z,0.00
2023-04-04T13:49:57.176Z,0.00
2023-04-04T13:52:25.562Z,0.00
2023-04-04T13:54:52.885Z,0.00
2023-04-04T13:57:19.816Z,0.00
2023-04-04T13:59:47.026Z,0.00
2023-04-04T14:02:14.412Z,0.43
2023-04-04T14:04:42.136Z,0.00
2023-04-04T14:07:09.822Z,0.00
2023-04-04T14:09:38.727Z,0.00
2023-04-04T14:12:06.717Z,0.00
2023-04-04T14:14:35.641Z,0.08
2023-04-04T14:17:04.482Z,0.00
2023-04-04T14:19:31.884Z,0.00
2023-04-04T14:21:58.765Z,0.00
2023-04-04T14:24:26.382Z,0.00
2023-04-04T14:26:55.975Z,0.00
2023-04-04T14:29:22.954Z,0.00
2023-04-04T14:31:49.781Z,0.22
2023-04-04T14:34:16.652Z,0.00
2023-04-04T14:36:44.090Z,0.00
2023-04-04T14:39:10.877Z,0.00
2023-04-04T14:41:38.033Z,0.00
2023-04-04T14:44:06.738Z,0.00
2023-04-04T14:46:34.039Z,0.00
2023-04-04T14:49:03.576Z,0.00
2023-04-04T14:51:32.591Z,0.00
2023-04-04T14:53:59.724Z,0.00
2023-04-04T14:56:27.750Z,0.00
2023-04-04T14:58:54.958Z,0.00
2023-04-04T15:01:23.275Z,0.00
2023-04-04T15:03:50.274Z,0.00
2023-04-04T15:06:17.388Z,0.00
2023-04-04T15:08:44.313Z,0.00
2023-04-04T15:11:13.169Z,0.00
2023-04-04T15:13:42.809Z,0.00
2023-04-04T15:16:09.795Z,0.00
2023-04-04T15:18:39.545Z,0.00
2023-04-04T15:21:06.782Z,0.00
2023-04-04T15:23:35.618Z,0.00
2023-04-04T15:26:03.024Z,0.10
2023-04-04T15:28:30.092Z,0.00
2023-04-04T15:30:57.125Z,0.00
2023-04-04T15:33:24.352Z,0.00
2023-04-04T15:35:52.717Z,0.00
2023-04-04T15:38:20.419Z,0.00
2023-04-04T15:40:48.839Z,0.00
2023-04-04T15:43:15.625Z,0.00
2023-04-04T15:45:43.111Z,0.00
2023-04-04T15:48:10.172Z,0.00
2023-04-04T15:50:37.163Z,0.10
2023-04-04T15:53:05.783Z,0.65
2023-04-04T15:55:32.829Z,0.00
2023-04-04T15:58:00.181Z,0.10
2023-04-04T16:00:30.117Z,0.00
2023-04-04T16:02:58.186Z,0.00
2023-04-04T16:05:25.919Z,0.05
2023-04-04T16:07:52.924Z,0.00
2023-04-04T16:10:21.844Z,0.10
2023-04-04T16:12:49.166Z,0.10
2023-04-04T16:15:16.479Z,0.10
2023-04-04T16:17:47.116Z,0.10
2023-04-04T16:20:14.550Z,0.10
2023-04-04T16:22:41.442Z,0.10
2023-04-04T16:25:09.136Z,1.13
2023-04-04T16:27:37.391Z,0.00
2023-04-04T16:30:05.123Z,0.22
2023-04-04T16:32:34.475Z,0.00
2023-04-04T16:35:01.591Z,0.10
2023-04-04T16:37:28.579Z,0.10
2023-04-04T16:39:56.614Z,0.10
2023-04-04T16:42:24.990Z,0.10
2023-04-04T16:44:53.462Z,0.10
2023-04-04T16:47:20.736Z,0.10
2023-04-04T16:49:48.944Z,0.10
2023-04-04T16:52:16.225Z,0.10
2023-04-04T16:54:43.286Z,0.10
2023-04-04T16:57:10.683Z,0.17
2023-04-04T16:59:37.563Z,0.20
2023-04-04T17:02:08.833Z,0.10
2023-04-04T17:04:39.634Z,0.10
2023-04-04T17:07:10.742Z,0.15
2023-04-04T17:09:38.267Z,0.10
2023-04-04T17:12:05.814Z,0.20
2023-04-04T17:14:33.533Z,0.10
2023-04-04T17:17:00.945Z,0.20
2023-04-04T17:19:31.581Z,0.28
2023-04-04T17:21:59.460Z,0.20
2023-04-04T17:24:27.583Z,0.20
2023-04-04T17:26:56.072Z,0.20
2023-04-04T17:29:27.012Z,0.20
2023-04-04T17:31:55.549Z,0.20
2023-04-04T17:34:23.347Z,0.20
2023-04-04T17:36:52.499Z,0.20
2023-04-04T17:39:19.620Z,0.20
2023-04-04T17:41:47.825Z,0.20
2023-04-04T17:44:14.857Z,0.20
2023-04-04T17:46:42.239Z,0.28
2023-04-04T17:49:09.229Z,0.20
2023-04-04T17:51:36.396Z,0.20
2023-04-04T17:54:05.208Z,0.30
2023-04-04T17:56:32.397Z,0.28
2023-04-04T17:58:59.680Z,0.20
2023-04-04T18:01:27.967Z,0.20
2023-04-04T18:03:55.911Z,0.20
2023-04-04T18:06:23.943Z,0.30
2023-04-04T18:08:51.064Z,0.20
2023-04-04T18:11:21.991Z,0.20
2023-04-04T18:13:49.471Z,0.20
2023-04-04T18:16:19.202Z,0.20
2023-04-04T18:18:46.198Z,0.20
2023-04-04T18:21:15.932Z,0.20
2023-04-04T18:23:42.953Z,0.22
2023-04-04T18:26:09.794Z,0.20
2023-04-04T18:28:38.426Z,0.25
2023-04-04T18:31:05.470Z,0.20
2023-04-04T18:33:33.032Z,0.30
2023-04-04T18:36:00.432Z,0.30
2023-04-04T18:38:28.024Z,0.38
2023-04-04T18:40:55.571Z,0.30
2023-04-04T18:43:23.563Z,0.20
2023-04-04T18:45:53.021Z,0.30
2023-04-04T18:48:20.010Z,0.30
2023-04-04T18:50:46.964Z,0.20
2023-04-04T18:53:14.168Z,0.30
2023-04-04T18:55:41.043Z,0.30
2023-04-04T18:58:10.343Z,0.30
2023-04-04T19:00:37.187Z,0.30
2023-04-04T19:03:07.600Z,0.30
2023-04-04T19:05:37.106Z,0.30
2023-04-04T19:08:08.904Z,0.30
2023-04-04T19:10:36.229Z,0.30
2023-04-04T19:13:03.190Z,0.30
2023-04-04T19:15:30.371Z,0.30
2023-04-04T19:17:57.526Z,0.28
2023-04-04T19:20:25.796Z,0.22
2023-04-04T19:22:53.225Z,0.30
2023-04-04T19:25:20.402Z,0.30
2023-04-04T19:27:47.683Z,0.40
2023-04-04T19:30:39.980Z,0.30
2023-04-04T19:33:10.840Z,0.30
2023-04-04T19:35:53.903Z,0.30
2023-04-04T19:38:26.148Z,0.30
2023-04-04T19:41:00.229Z,0.30
2023-04-04T19:43:28.703Z,0.30
2023-04-04T19:45:56.581Z,0.30
2023-04-04T19:48:51.200Z,0.30
2023-04-04T19:51:53.867Z,0.30
2023-04-04T19:54:27.610Z,0.40
2023-04-04T19:57:07.519Z,0.40
2023-04-04T19:59:59.358Z,0.40
2023-04-04T20:02:57.843Z,0.30
2023-04-04T20:05:54.768Z,0.40
2023-04-04T20:08:23.639Z,0.30
2023-04-04T20:10:54.021Z,0.40
2023-04-04T20:13:20.889Z,0.30
2023-04-04T20:16:03.397Z,0.40
2023-04-04T20:18:32.292Z,0.40
2023-04-04T20:21:06.526Z,0.40
2023-04-04T20:26:07.723Z,0.40
2023-04-04T20:28:35.961Z,0.40
2023-04-04T20:31:07.447Z,0.40
2023-04-04T20:33:37.912Z,0.40
2023-04-04T20:36:10.503Z,0.40
2023-04-04T20:38:41.065Z,0.40
2023-04-04T20:41:16.419Z,0.40
2023-04-04T20:43:51.522Z,0.40
2023-04-04T20:46:22.778Z,0.40
2023-04-04T20:48:54.218Z,0.40
2023-04-04T20:51:29.642Z,0.32
2023-04-04T20:54:00.004Z,0.32
2023-04-04T20:56:52.513Z,0.40
2023-04-04T20:59:37.563Z,0.40
2023-04-04T21:02:28.921Z,0.40
2023-04-04T21:04:57.361Z,0.40
2023-04-04T21:07:43.581Z,0.40
2023-04-04T21:10:43.499Z,0.30
2023-04-04T21:13:10.768Z,0.40
2023-04-04T21:15:39.227Z,0.40
2023-04-04T21:18:09.004Z,0.40
2023-04-04T21:21:07.223Z,0.40
2023-04-04T21:23:39.245Z,0.40
2023-04-04T21:26:09.302Z,0.40
2023-04-04T21:28:37.572Z,0.40
2023-04-04T21:31:13.331Z,0.40
2023-04-04T21:33:42.399Z,0.40
2023-04-04T21:36:27.779Z,0.40
2023-04-04T21:38:56.278Z,0.40
2023-04-04T21:41:26.675Z,0.40
2023-04-04T21:43:56.367Z,0.40
2023-04-04T21:46:27.670Z,1.15
2023-04-04T21:48:55.373Z,0.40
2023-04-04T21:51:22.630Z,0.40
2023-04-04T21:53:50.301Z,0.40
2023-04-04T21:56:18.242Z,0.40
2023-04-04T21:58:47.011Z,0.40
2023-04-04T22:01:13.885Z,0.40
2023-04-04T22:03:41.321Z,0.40
2023-04-04T22:06:08.462Z,0.40
2023-04-04T22:08:35.445Z,0.40
2023-04-04T22:11:03.389Z,0.40
2023-04-04T22:13:33.947Z,0.40
2023-04-04T22:16:04.621Z,0.40
2023-04-04T22:18:33.132Z,0.50
2023-04-04T22:21:04.356Z,0.40
2023-04-04T22:23:35.664Z,0.40
2023-04-04T22:26:05.192Z,0.40
2023-04-04T22:28:33.371Z,0.50
2023-04-04T22:31:02.190Z,0.40
2023-04-04T22:33:29.808Z,0.43
2023-04-04T22:35:58.010Z,0.50
2023-04-04T22:38:25.825Z,0.40
2023-04-04T22:40:53.622Z,0.40
2023-04-04T22:43:21.755Z,0.50
2023-04-04T22:45:49.148Z,0.50
2023-04-04T22:48:17.421Z,0.50
2023-04-04T22:50:45.166Z,0.50
2023-04-04T22:53:13.428Z,0.50
2023-04-04T22:55:40.835Z,0.40
2023-04-04T22:58:08.765Z,0.50
2023-04-04T23:00:35.865Z,0.50
2023-04-04T23:03:05.283Z,0.50
2023-04-04T23:05:33.813Z,0.50
2023-04-04T23:08:03.919Z,0.50
2023-04-04T23:10:30.803Z,0.50
2023-04-04T23:12:58.167Z,0.50
2023-04-04T23:15:25.092Z,0.50
2023-04-04T23:17:55.124Z,0.50
2023-04-04T23:20:24.044Z,0.52
2023-04-04T23:22:54.782Z,0.50
2023-04-04T23:25:26.238Z,0.50
2023-04-04T23:27:54.178Z,0.50
2023-04-04T23:30:23.288Z,0.50
2023-04-04T23:32:50.529Z,0.60
2023-04-04T23:35:17.599Z,0.50
2023-04-04T23:37:44.641Z,0.60
2023-04-04T23:40:13.562Z,0.50
2023-04-04T23:42:41.805Z,0.50
2023-04-04T23:45:10.185Z,0.50
2023-04-04T23:47:37.300Z,0.50
2023-04-04T23:50:05.255Z,0.50
2023-04-04T23:52:32.283Z,0.50
2023-04-04T23:54:59.508Z,0.50
2023-04-04T23:57:27.773Z,0.60
2023-04-04T23:59:54.759Z,0.50
